Aviation Digital Data Service (ADDS)

Output produced by METARs form (1347 UTC 27 September 2016)
found at http://aviationweather.gov/adds/metars/
 
KEKN 271120Z 2712/2812 VRB03KT P6SM SCT025 
     FM271500 24005KT P6SM FEW080 
     FM280000 00000KT P6SM SKC 
     FM280600 00000KT 5SM BR SKC 
     FM280800 00000KT 1/4SM FG BKN001